Time;durP1;ratioP1;P1;durP2;ratioP2;P2;SDS_P1;SDS_P2;PMS_P1;PMS_P2;Temp;Humidity;BMP_temperature;BMP_pressure;BME280_temperature;BME280_humidity;BME280_pressure;Samples;Min_cycle;Max_cycle;Signal;HPM_P1;HPM_P2
2022/04/17 00:00:32;;;;;;;8.00;5.30;;;10.30;99.90;;;;;;5059615;28;20206;-56
2022/04/17 00:02:59;;;;;;;8.10;5.97;;;10.30;99.90;;;;;;5052879;28;20199;-55
2022/04/17 00:05:26;;;;;;;7.87;6.20;;;10.30;99.90;;;;;;5061502;28;20219;-55
2022/04/17 00:07:53;;;;;;;7.77;5.53;;;10.20;99.90;;;;;;5059684;28;20199;-53
2022/04/17 00:10:21;;;;;;;8.40;6.40;;;10.20;99.90;;;;;;5060576;28;20252;-54
2022/04/17 00:12:48;;;;;;;7.83;5.13;;;10.30;99.90;;;;;;5059511;28;20203;-53
2022/04/17 00:15:15;;;;;;;7.83;5.80;;;10.30;99.90;;;;;;5062212;28;20325;-54
2022/04/17 00:17:42;;;;;;;7.90;6.27;;;10.40;99.90;;;;;;5058934;28;20244;-53
2022/04/17 00:20:13;;;;;;;6.90;6.10;;;10.30;99.90;;;;;;5060992;28;20301;-56
2022/04/17 00:22:40;;;;;;;7.10;5.70;;;10.30;99.90;;;;;;5058602;28;20318;-54
2022/04/17 00:25:08;;;;;;;6.50;5.57;;;10.20;99.90;;;;;;5063084;28;20225;-54
2022/04/17 00:27:36;;;;;;;7.20;5.83;;;10.20;99.90;;;;;;5060482;28;20198;-55
2022/04/17 00:30:03;;;;;;;8.13;5.90;;;10.30;99.90;;;;;;5057340;28;20915;-53
2022/04/17 00:32:31;;;;;;;7.63;5.47;;;10.20;99.90;;;;;;5058677;28;20235;-53
2022/04/17 00:34:59;;;;;;;9.97;6.27;;;10.20;99.90;;;;;;5059806;28;20210;-54
2022/04/17 00:37:26;;;;;;;8.07;6.20;;;10.20;99.90;;;;;;5058874;28;20197;-54
2022/04/17 00:39:53;;;;;;;8.07;6.03;;;10.10;99.90;;;;;;5065349;28;20381;-54
2022/04/17 00:42:20;;;;;;;11.87;6.33;;;10.10;99.90;;;;;;5043180;28;20233;-53
2022/04/17 00:44:47;;;;;;;6.97;5.73;;;10.10;99.90;;;;;;5063155;28;20219;-54
2022/04/17 00:47:16;;;;;;;8.23;6.30;;;10.00;99.90;;;;;;5061021;28;20198;-54
2022/04/17 00:49:45;;;;;;;6.97;5.73;;;10.10;99.90;;;;;;5062518;28;20205;-54
2022/04/17 00:52:13;;;;;;;7.03;6.03;;;10.10;99.90;;;;;;5060034;28;20256;-53
2022/04/17 00:54:46;;;;;;;9.73;6.10;;;10.10;99.90;;;;;;5060148;28;20251;-53
2022/04/17 00:57:17;;;;;;;10.17;7.13;;;10.00;99.90;;;;;;5059620;28;20289;-59
2022/04/17 00:59:46;;;;;;;10.03;6.33;;;10.00;99.90;;;;;;5051203;28;20207;-54
2022/04/17 01:02:14;;;;;;;9.57;7.23;;;9.90;99.90;;;;;;5061246;28;20206;-54
2022/04/17 01:04:43;;;;;;;9.77;6.63;;;9.80;99.90;;;;;;5061658;28;20661;-54
2022/04/17 01:07:10;;;;;;;9.43;6.97;;;9.70;99.90;;;;;;5064179;28;20284;-54
2022/04/17 01:09:38;;;;;;;8.70;6.50;;;9.70;99.90;;;;;;5061837;28;20201;-53
2022/04/17 01:12:08;;;;;;;9.93;7.03;;;9.60;99.90;;;;;;5053996;28;20681;-55
2022/04/17 01:14:40;;;;;;;12.30;7.43;;;9.60;99.90;;;;;;5062884;28;20301;-54
2022/04/17 01:17:09;;;;;;;9.10;6.40;;;9.60;99.90;;;;;;5059373;28;20201;-56
2022/04/17 01:19:37;;;;;;;11.33;7.23;;;9.50;99.90;;;;;;5058973;28;20233;-55
2022/04/17 01:22:06;;;;;;;8.57;6.23;;;9.50;99.90;;;;;;5060810;28;20227;-54
2022/04/17 01:27:19;;;;;;;11.80;5.90;;;9.40;99.90;;;;;;5052918;28;20203;-54
2022/04/17 01:29:47;;;;;;;8.60;6.40;;;9.40;99.90;;;;;;5062010;28;20204;-56
2022/04/17 01:32:15;;;;;;;8.53;6.17;;;9.40;99.90;;;;;;5060638;28;20300;-54
2022/04/17 01:34:42;;;;;;;8.33;6.33;;;9.40;99.90;;;;;;5061851;28;20733;-53
2022/04/17 01:37:10;;;;;;;7.80;6.33;;;9.30;99.90;;;;;;5062954;28;20217;-54
2022/04/17 01:39:36;;;;;;;7.47;5.60;;;9.30;99.90;;;;;;5065086;28;20658;-54
2022/04/17 01:42:04;;;;;;;10.63;6.50;;;9.30;99.90;;;;;;5062368;28;20325;-55
2022/04/17 01:44:31;;;;;;;10.53;6.90;;;9.30;99.90;;;;;;5061866;28;20206;-54
2022/04/17 01:46:59;;;;;;;10.83;6.20;;;9.30;99.90;;;;;;5054811;28;20311;-53
2022/04/17 01:49:26;;;;;;;8.80;6.03;;;9.20;99.90;;;;;;5061520;28;20859;-54
2022/04/17 01:51:53;;;;;;;8.93;6.53;;;9.20;99.90;;;;;;5063345;28;20282;-54
2022/04/17 01:54:25;;;;;;;7.70;6.23;;;9.20;99.90;;;;;;5053448;28;20254;-59
2022/04/17 01:56:52;;;;;;;9.87;6.13;;;9.20;99.90;;;;;;5056206;28;20200;-53
2022/04/17 01:59:21;;;;;;;8.93;6.07;;;9.20;99.90;;;;;;5062105;28;20714;-53
2022/04/17 02:01:49;;;;;;;8.47;5.77;;;9.30;99.90;;;;;;5061515;28;20285;-53
2022/04/17 02:04:17;;;;;;;7.50;6.23;;;9.30;99.90;;;;;;5066000;28;20199;-54
2022/04/17 02:06:44;;;;;;;7.47;6.20;;;9.30;99.90;;;;;;5064380;28;20306;-54
2022/04/17 02:09:13;;;;;;;9.83;5.60;;;9.30;99.90;;;;;;5067888;28;20201;-54
2022/04/17 02:11:42;;;;;;;11.43;6.83;;;9.30;99.90;;;;;;5066110;28;20206;-53
2022/04/17 02:14:09;;;;;;;8.07;5.47;;;9.30;99.90;;;;;;5067275;28;20205;-56
2022/04/17 02:16:37;;;;;;;8.53;6.03;;;9.20;99.90;;;;;;5064715;28;20198;-54
2022/04/17 02:19:04;;;;;;;7.83;6.00;;;9.20;99.90;;;;;;5063036;28;20260;-53
2022/04/17 02:21:31;;;;;;;7.67;5.57;;;9.20;99.90;;;;;;5061683;28;20301;-53
2022/04/17 02:24:00;;;;;;;8.17;5.60;;;9.10;99.90;;;;;;5048003;28;20696;-55
2022/04/17 02:26:27;;;;;;;8.87;6.10;;;9.00;99.90;;;;;;5062389;28;21901;-54
2022/04/17 02:28:56;;;;;;;7.60;6.17;;;9.00;99.90;;;;;;5067654;28;20527;-55
2022/04/17 02:31:24;;;;;;;7.27;5.40;;;9.00;99.90;;;;;;5063350;28;20293;-54
2022/04/17 02:33:51;;;;;;;8.70;5.97;;;9.00;99.90;;;;;;5061632;28;20224;-54
2022/04/17 02:36:19;;;;;;;7.67;6.17;;;9.00;99.90;;;;;;5064659;28;20212;-56
2022/04/17 02:38:46;;;;;;;11.53;6.43;;;9.00;99.90;;;;;;5066518;28;20321;-54
2022/04/17 02:41:13;;;;;;;8.10;6.23;;;8.80;99.90;;;;;;5067855;28;20711;-54
2022/04/17 02:43:40;;;;;;;9.17;6.40;;;8.70;99.90;;;;;;5068301;28;20203;-54
2022/04/17 02:46:06;;;;;;;7.27;6.13;;;8.80;99.90;;;;;;5062972;28;20201;-53
2022/04/17 02:48:34;;;;;;;6.67;5.70;;;8.80;99.90;;;;;;5065899;28;20233;-54
2022/04/17 02:51:02;;;;;;;6.90;5.87;;;8.70;99.90;;;;;;5065330;28;20552;-54
2022/04/17 02:53:33;;;;;;;7.70;6.10;;;8.70;99.90;;;;;;5064238;28;20200;-55
2022/04/17 02:56:00;;;;;;;9.17;5.93;;;8.70;99.90;;;;;;5064702;28;20202;-54
2022/04/17 02:58:28;;;;;;;8.43;6.07;;;8.60;99.90;;;;;;5064006;28;20198;-54
2022/04/17 03:06:25;;;;;;;8.63;5.60;;;8.60;99.90;;;;;;5062485;28;20310;-53
2022/04/17 03:08:52;;;;;;;8.17;5.70;;;8.60;99.90;;;;;;5064777;28;20256;-54
2022/04/17 03:11:19;;;;;;;8.23;5.50;;;8.70;99.90;;;;;;5062625;28;20237;-54
2022/04/17 03:13:48;;;;;;;9.73;6.60;;;8.60;99.90;;;;;;5061834;28;20195;-53
2022/04/17 03:16:15;;;;;;;6.90;6.20;;;8.70;99.90;;;;;;5061252;28;20211;-53
2022/04/17 03:18:42;;;;;;;8.80;5.83;;;8.60;99.90;;;;;;5065521;28;20206;-54
2022/04/17 03:21:10;;;;;;;6.57;5.50;;;8.60;99.90;;;;;;5062544;28;20647;-56
2022/04/17 03:23:37;;;;;;;7.23;5.63;;;8.60;99.90;;;;;;5066917;28;20268;-54
2022/04/17 03:26:03;;;;;;;9.13;5.93;;;8.50;99.90;;;;;;5063108;28;20722;-54
2022/04/17 03:28:30;;;;;;;9.67;6.40;;;8.40;99.90;;;;;;5064466;28;20199;-54
2022/04/17 03:30:57;;;;;;;9.33;5.77;;;8.40;99.90;;;;;;5063138;28;20200;-54
2022/04/17 03:33:26;;;;;;;7.63;5.77;;;8.40;99.90;;;;;;5063533;28;20285;-54
2022/04/17 03:35:52;;;;;;;7.53;6.47;;;8.40;99.90;;;;;;5061163;28;20213;-54
2022/04/17 03:38:19;;;;;;;10.50;5.53;;;8.40;99.90;;;;;;5064624;28;20195;-53
2022/04/17 03:40:46;;;;;;;9.33;6.27;;;8.40;99.90;;;;;;5063605;28;20192;-53
2022/04/17 03:43:13;;;;;;;9.10;5.97;;;8.40;99.90;;;;;;5064461;28;20205;-55
2022/04/17 03:45:40;;;;;;;8.70;6.13;;;8.40;99.90;;;;;;5061720;28;20211;-55
2022/04/17 03:48:07;;;;;;;7.23;6.33;;;8.30;99.90;;;;;;5062824;28;20192;-54
2022/04/17 03:50:34;;;;;;;6.87;5.23;;;8.10;99.90;;;;;;5066048;28;20348;-54
2022/04/17 03:53:00;;;;;;;11.53;6.13;;;8.10;99.90;;;;;;5064239;28;20690;-53
2022/04/17 03:55:27;;;;;;;7.20;6.13;;;8.10;99.90;;;;;;5066306;28;20202;-53
2022/04/17 03:57:54;;;;;;;8.57;6.00;;;8.20;99.90;;;;;;5063203;28;20299;-59
2022/04/17 04:00:21;;;;;;;10.70;6.27;;;8.10;99.90;;;;;;5061478;28;20196;-55
2022/04/17 04:02:51;;;;;;;7.00;6.13;;;7.90;99.90;;;;;;5061574;28;20207;-55
2022/04/17 04:05:19;;;;;;;7.60;5.83;;;7.90;99.90;;;;;;5063066;28;20239;-54
2022/04/17 04:07:47;;;;;;;8.27;5.40;;;7.90;99.90;;;;;;5063475;28;20234;-55
2022/04/17 04:10:14;;;;;;;7.70;5.83;;;7.90;99.90;;;;;;5060348;28;20718;-54
2022/04/17 04:12:41;;;;;;;10.67;5.77;;;7.80;99.90;;;;;;5063332;28;20197;-55
2022/04/17 04:15:08;;;;;;;8.37;6.07;;;7.70;99.90;;;;;;5064665;28;20202;-53
2022/04/17 04:17:35;;;;;;;8.43;5.97;;;7.70;99.90;;;;;;5044927;28;20708;-54
2022/04/17 04:20:04;;;;;;;9.57;5.97;;;7.60;99.90;;;;;;5060903;28;20235;-53
2022/04/17 04:22:30;;;;;;;8.00;5.77;;;7.60;99.90;;;;;;5066879;28;20251;-54
2022/04/17 04:24:57;;;;;;;6.50;5.53;;;7.50;99.90;;;;;;5060766;28;20191;-54
2022/04/17 04:30:10;;;;;;;11.20;5.30;;;7.50;99.90;;;;;;5062144;28;20196;-54
2022/04/17 04:32:37;;;;;;;7.63;5.53;;;7.50;99.90;;;;;;5045966;28;20330;-54
2022/04/17 04:35:04;;;;;;;8.13;6.10;;;7.50;99.90;;;;;;5063174;28;20250;-56
2022/04/17 04:37:32;;;;;;;9.43;5.77;;;7.50;99.90;;;;;;5066046;28;20739;-53
2022/04/17 04:39:59;;;;;;;7.70;5.30;;;7.50;99.90;;;;;;5063982;28;20200;-54
2022/04/17 04:42:27;;;;;;;8.97;5.87;;;7.50;99.90;;;;;;5063215;28;20218;-55
2022/04/17 04:47:39;;;;;;;7.97;6.07;;;7.50;99.90;;;;;;5061408;28;20195;-54
2022/04/17 04:50:07;;;;;;;8.57;5.67;;;7.40;99.90;;;;;;5064621;28;20304;-54
2022/04/17 04:52:35;;;;;;;8.03;5.50;;;7.40;99.90;;;;;;5062070;28;20624;-54
2022/04/17 04:55:04;;;;;;;9.70;5.93;;;7.30;99.90;;;;;;5064152;28;20205;-55
2022/04/17 04:57:31;;;;;;;9.03;5.67;;;7.30;99.90;;;;;;5063063;28;20577;-54
2022/04/17 04:59:58;;;;;;;8.47;5.57;;;7.40;99.90;;;;;;5061370;28;20227;-54
2022/04/17 05:02:25;;;;;;;9.73;6.17;;;7.30;99.90;;;;;;5060098;28;20245;-54
2022/04/17 05:04:51;;;;;;;6.90;5.63;;;7.30;99.90;;;;;;5064070;28;20666;-54
2022/04/17 05:07:18;;;;;;;7.30;5.87;;;7.30;99.90;;;;;;5066723;28;20234;-55
2022/04/17 05:09:45;;;;;;;7.73;5.87;;;7.30;99.90;;;;;;5063237;28;20250;-55
2022/04/17 05:12:12;;;;;;;9.53;5.97;;;7.30;99.90;;;;;;5061477;28;20212;-54
2022/04/17 05:14:41;;;;;;;6.30;5.67;;;7.30;99.90;;;;;;5060687;28;20706;-54
2022/04/17 05:17:08;;;;;;;6.10;5.30;;;7.40;99.90;;;;;;5061695;28;20673;-54
2022/04/17 05:19:35;;;;;;;6.73;5.23;;;7.40;99.90;;;;;;5063200;28;20289;-54
2022/04/17 05:22:03;;;;;;;7.07;6.30;;;7.30;99.90;;;;;;5061714;28;20245;-54
2022/04/17 05:24:30;;;;;;;7.00;6.10;;;7.30;99.90;;;;;;5061713;28;20250;-54
2022/04/17 05:26:57;;;;;;;9.57;6.60;;;7.20;99.90;;;;;;5063706;28;20263;-54
2022/04/17 05:29:24;;;;;;;6.73;5.77;;;7.10;99.90;;;;;;5059422;28;20227;-53
2022/04/17 05:31:50;;;;;;;6.13;5.00;;;7.10;99.90;;;;;;5062559;28;20243;-56
2022/04/17 05:34:18;;;;;;;7.97;6.20;;;7.10;99.90;;;;;;5061914;28;20300;-54
2022/04/17 05:36:44;;;;;;;8.83;5.70;;;7.20;99.90;;;;;;5063748;28;20745;-54
2022/04/17 05:39:12;;;;;;;7.50;6.60;;;7.10;99.90;;;;;;5062145;28;20648;-53
2022/04/17 05:41:39;;;;;;;6.77;5.60;;;7.10;99.90;;;;;;5063577;28;20209;-54
2022/04/17 05:44:07;;;;;;;7.73;5.77;;;7.20;99.90;;;;;;5065297;28;20591;-54
2022/04/17 05:46:36;;;;;;;8.03;5.87;;;7.20;99.90;;;;;;5059250;28;20218;-54
2022/04/17 05:49:04;;;;;;;7.70;6.03;;;7.40;99.90;;;;;;5041842;28;20218;-55
2022/04/17 05:51:36;;;;;;;8.00;5.10;;;7.30;99.90;;;;;;5065133;28;20224;-52
2022/04/17 05:54:13;;;;;;;7.03;5.17;;;7.30;99.90;;;;;;5060142;28;20234;-54
2022/04/17 05:56:39;;;;;;;6.30;5.30;;;7.40;99.90;;;;;;5061020;28;20205;-54
2022/04/17 05:59:07;;;;;;;9.53;5.60;;;7.60;99.90;;;;;;5063999;28;20250;-56
2022/04/17 06:01:34;;;;;;;6.87;5.17;;;7.70;99.90;;;;;;5057682;28;20210;-54
2022/04/17 06:04:04;;;;;;;10.13;5.40;;;7.70;99.90;;;;;;5063487;28;20199;-53
2022/04/17 06:06:31;;;;;;;6.00;4.93;;;7.70;99.90;;;;;;5060429;28;20315;-54
2022/04/17 06:08:58;;;;;;;5.97;5.37;;;7.70;99.90;;;;;;5064736;28;20225;-56
2022/04/17 06:11:24;;;;;;;9.37;5.67;;;7.90;99.90;;;;;;5057061;28;20291;-55
2022/04/17 06:13:52;;;;;;;8.30;5.67;;;7.90;99.90;;;;;;5065044;28;20241;-53
2022/04/17 06:16:19;;;;;;;6.67;5.00;;;7.90;99.90;;;;;;5058502;28;20282;-54
2022/04/17 06:18:45;;;;;;;9.07;5.50;;;8.20;99.90;;;;;;5062412;28;20370;-53
2022/04/17 06:21:12;;;;;;;8.30;5.63;;;8.30;99.90;;;;;;5062054;28;20415;-55
2022/04/17 06:23:39;;;;;;;6.20;5.40;;;8.50;99.90;;;;;;5062574;28;20252;-54
2022/04/17 06:26:09;;;;;;;7.73;5.87;;;8.50;99.90;;;;;;5051870;28;20908;-53
2022/04/17 06:28:37;;;;;;;7.63;5.67;;;8.60;99.90;;;;;;5044705;28;20204;-53
2022/04/17 06:31:07;;;;;;;6.13;5.50;;;8.60;99.90;;;;;;5046084;28;20713;-52
2022/04/17 06:33:34;;;;;;;6.27;5.27;;;8.70;99.90;;;;;;5044420;28;20193;-54
2022/04/17 06:36:01;;;;;;;6.27;4.60;;;8.80;99.90;;;;;;5046591;28;20233;-54
2022/04/17 06:38:28;;;;;;;6.87;5.07;;;8.90;99.90;;;;;;5040005;28;20812;-53
2022/04/17 06:40:55;;;;;;;8.27;4.53;;;9.10;99.90;;;;;;5042175;28;20840;-54
2022/04/17 06:43:22;;;;;;;10.67;6.07;;;9.30;99.90;;;;;;5044937;28;20205;-54
2022/04/17 06:45:49;;;;;;;7.57;4.60;;;9.50;99.90;;;;;;5042843;28;20566;-54
2022/04/17 06:48:23;;;;;;;5.33;4.73;;;9.80;99.90;;;;;;5033180;28;20217;-56
2022/04/17 06:50:52;;;;;;;6.40;4.90;;;9.90;99.90;;;;;;5029946;28;20247;-55
2022/04/17 06:53:19;;;;;;;6.67;5.10;;;10.20;99.90;;;;;;5045821;28;20204;-55
2022/04/17 06:55:49;;;;;;;6.27;4.37;;;10.60;99.90;;;;;;5045955;28;20210;-53
2022/04/17 06:58:19;;;;;;;6.43;4.67;;;10.40;99.90;;;;;;5044797;28;20675;-53
2022/04/17 07:00:48;;;;;;;4.83;4.10;;;10.40;99.90;;;;;;5046465;28;20249;-52
2022/04/17 07:03:15;;;;;;;5.33;4.00;;;10.50;99.90;;;;;;5043313;28;20194;-53
2022/04/17 07:05:43;;;;;;;6.60;4.07;;;10.60;99.90;;;;;;5045016;28;20286;-56
2022/04/17 07:08:10;;;;;;;6.27;4.10;;;10.80;99.90;;;;;;5048179;28;20218;-54
2022/04/17 07:10:39;;;;;;;4.53;3.53;;;11.10;99.90;;;;;;5043799;28;20219;-54
2022/04/17 07:13:15;;;;;;;4.37;3.70;;;11.20;99.90;;;;;;5045153;28;20298;-55
2022/04/17 07:15:42;;;;;;;3.97;3.33;;;11.30;99.90;;;;;;5040509;28;20199;-54
2022/04/17 07:18:09;;;;;;;3.90;3.50;;;11.20;99.90;;;;;;5032978;28;20211;-55
2022/04/17 07:20:35;;;;;;;6.37;3.40;;;11.00;99.90;;;;;;5051145;28;20844;-55
2022/04/17 07:23:03;;;;;;;5.60;3.80;;;11.30;99.90;;;;;;5038441;28;20266;-55
2022/04/17 07:25:29;;;;;;;4.73;3.77;;;11.60;99.90;;;;;;5049108;28;20238;-53
2022/04/17 07:27:56;;;;;;;4.03;3.63;;;11.60;99.90;;;;;;5064002;28;20246;-54
2022/04/17 07:30:26;;;;;;;4.90;3.80;;;11.70;99.90;;;;;;5063478;28;20211;-55
2022/04/17 07:32:55;;;;;;;5.43;3.50;;;11.40;99.90;;;;;;5065573;28;20198;-55
2022/04/17 07:35:23;;;;;;;4.17;3.47;;;11.80;99.90;;;;;;5061649;28;20552;-54
2022/04/17 07:38:01;;;;;;;5.43;3.60;;;11.80;99.90;;;;;;5063779;28;20255;-54
2022/04/17 07:40:29;;;;;;;5.00;3.63;;;12.00;99.90;;;;;;5036124;28;20634;-53
2022/04/17 07:42:58;;;;;;;3.97;3.57;;;12.10;99.90;;;;;;5060480;28;20222;-54
2022/04/17 07:45:26;;;;;;;4.40;3.97;;;12.00;99.90;;;;;;5063898;28;20203;-58
2022/04/17 07:47:53;;;;;;;4.40;4.00;;;11.80;99.90;;;;;;5060821;28;20233;-53
2022/04/17 07:50:28;;;;;;;6.00;3.77;;;12.00;99.90;;;;;;5062357;28;20248;-53
2022/04/17 07:52:54;;;;;;;4.30;3.90;;;12.10;99.90;;;;;;5066550;28;20279;-53
2022/04/17 07:55:22;;;;;;;6.80;4.30;;;12.20;99.90;;;;;;5061096;28;20239;-56
2022/04/17 07:58:12;;;;;;;4.47;4.07;;;12.20;99.90;;;;;;5061971;28;20606;-53
2022/04/17 08:00:48;;;;;;;4.10;3.70;;;12.30;99.90;;;;;;5061920;28;20202;-54
2022/04/17 08:03:37;;;;;;;5.40;4.00;;;12.50;99.90;;;;;;5060169;28;20694;-53
2022/04/17 08:06:05;;;;;;;5.60;3.77;;;12.40;99.90;;;;;;5069942;28;20617;-54
2022/04/17 08:08:36;;;;;;;3.50;3.10;;;12.60;99.90;;;;;;5064877;28;20194;-54
2022/04/17 08:11:04;;;;;;;7.10;3.90;;;12.80;99.90;;;;;;5061681;28;20810;-54
2022/04/17 08:13:31;;;;;;;4.90;3.67;;;12.70;99.90;;;;;;5061947;28;20222;-54
2022/04/17 08:15:59;;;;;;;4.93;3.57;;;12.80;99.90;;;;;;5057720;28;20241;-55
2022/04/17 08:18:26;;;;;;;6.60;3.67;;;13.20;99.90;;;;;;5063758;28;20203;-56
2022/04/17 08:20:52;;;;;;;5.13;3.70;;;13.40;99.90;;;;;;5064544;28;20312;-54
2022/04/17 08:23:19;;;;;;;4.10;2.87;;;13.70;99.90;;;;;;5064739;28;20329;-54
2022/04/17 08:25:49;;;;;;;3.37;2.97;;;13.70;99.90;;;;;;5065939;28;20331;-54
2022/04/17 08:28:16;;;;;;;4.20;3.23;;;13.80;99.90;;;;;;5062354;28;20236;-53
2022/04/17 08:30:43;;;;;;;6.07;3.57;;;13.80;99.90;;;;;;5062082;28;20207;-55
2022/04/17 08:33:10;;;;;;;7.17;3.73;;;14.00;99.90;;;;;;5060290;28;20601;-54
2022/04/17 08:35:37;;;;;;;3.73;2.90;;;14.30;99.90;;;;;;5056365;28;20531;-54
2022/04/17 08:38:04;;;;;;;4.00;3.53;;;14.80;99.90;;;;;;5061324;28;20618;-53
2022/04/17 08:40:31;;;;;;;3.83;3.50;;;15.30;99.90;;;;;;5066233;28;20209;-53
2022/04/17 08:42:59;;;;;;;7.90;3.73;;;15.20;99.90;;;;;;5059941;28;20288;-53
2022/04/17 08:45:27;;;;;;;4.87;3.70;;;15.00;99.90;;;;;;5065749;28;20201;-53
2022/04/17 08:47:55;;;;;;;6.40;4.10;;;14.80;99.90;;;;;;5063321;28;20344;-54
2022/04/17 08:50:23;;;;;;;6.70;3.57;;;15.10;99.90;;;;;;5065141;28;20196;-53
2022/04/17 08:52:53;;;;;;;4.90;3.70;;;15.50;99.90;;;;;;5063783;28;20647;-53
2022/04/17 08:55:20;;;;;;;5.73;3.43;;;15.80;99.90;;;;;;5065214;28;20592;-53
2022/04/17 08:57:47;;;;;;;3.90;2.97;;;15.90;99.90;;;;;;5045705;28;20201;-53
2022/04/17 09:00:20;;;;;;;5.07;3.47;;;16.10;99.90;;;;;;5061786;28;20278;-53
2022/04/17 09:02:48;;;;;;;3.80;3.33;;;16.40;99.90;;;;;;5060041;28;20199;-53
2022/04/17 09:05:18;;;;;;;3.77;3.23;;;16.50;99.90;;;;;;5064650;28;20546;-53
2022/04/17 09:07:53;;;;;;;3.93;3.00;;;16.80;99.90;;;;;;5065063;28;20650;-53
2022/04/17 09:10:29;;;;;;;4.77;3.27;;;16.50;99.90;;;;;;5063793;28;20563;-53
2022/04/17 09:13:03;;;;;;;4.67;3.27;;;16.70;99.90;;;;;;5061778;28;20312;-53
2022/04/17 09:15:32;;;;;;;3.43;3.07;;;16.40;99.90;;;;;;5063512;28;20282;-54
2022/04/17 09:18:00;;;;;;;4.53;3.10;;;16.90;99.90;;;;;;5061852;28;20210;-53
2022/04/17 09:20:28;;;;;;;3.90;3.07;;;16.80;99.90;;;;;;5061520;28;20676;-53
2022/04/17 09:22:56;;;;;;;5.77;3.10;;;17.50;99.90;;;;;;5057409;28;20227;-52
2022/04/17 09:25:24;;;;;;;3.43;2.70;;;17.40;99.90;;;;;;5061909;28;20295;-53
2022/04/17 09:28:02;;;;;;;6.73;2.97;;;17.20;99.90;;;;;;5041138;28;20225;-52
2022/04/17 09:30:40;;;;;;;3.30;2.97;;;17.10;99.90;;;;;;5061483;28;20200;-52
2022/04/17 09:33:12;;;;;;;4.40;3.23;;;17.00;99.90;;;;;;5061587;28;20645;-55
2022/04/17 09:35:40;;;;;;;4.23;2.77;;;16.90;99.90;;;;;;5064196;28;20206;-53
2022/04/17 09:38:08;;;;;;;3.50;3.20;;;16.50;99.90;;;;;;5062140;28;20201;-53
2022/04/17 09:40:37;;;;;;;3.90;2.60;;;17.10;99.90;;;;;;5062700;28;20231;-53
2022/04/17 09:43:08;;;;;;;3.23;2.60;;;16.00;99.90;;;;;;5040484;28;20203;-53
2022/04/17 09:45:55;;;;;;;3.83;3.10;;;15.50;99.90;;;;;;5061081;28;20203;-54
2022/04/17 09:48:22;;;;;;;2.93;2.60;;;16.30;99.90;;;;;;5058122;28;20218;-55
2022/04/17 09:50:49;;;;;;;3.67;3.10;;;16.50;99.90;;;;;;5058755;28;20295;-55
2022/04/17 09:53:36;;;;;;;4.43;2.70;;;16.90;99.90;;;;;;5063382;28;20224;-55
2022/04/17 09:56:08;;;;;;;4.00;2.87;;;17.00;99.90;;;;;;5064632;28;21376;-53
2022/04/17 09:58:45;;;;;;;3.33;3.00;;;17.10;99.90;;;;;;5067274;28;20619;-54
2022/04/17 10:01:16;;;;;;;4.43;2.90;;;16.50;99.90;;;;;;5065710;28;20262;-53
2022/04/17 10:03:44;;;;;;;4.37;3.03;;;16.70;99.90;;;;;;5066343;28;20199;-53
2022/04/17 10:06:12;;;;;;;4.33;2.50;;;16.90;99.90;;;;;;5067722;28;20213;-54
2022/04/17 10:08:42;;;;;;;3.40;2.73;;;16.70;99.90;;;;;;5069232;28;20304;-54
2022/04/17 10:11:09;;;;;;;3.57;2.70;;;16.70;99.90;;;;;;5068178;28;20206;-53
2022/04/17 10:13:35;;;;;;;2.60;2.40;;;16.90;99.90;;;;;;5065926;28;20254;-53
2022/04/17 10:16:06;;;;;;;3.57;3.00;;;16.80;99.90;;;;;;5066924;28;20603;-53
2022/04/17 10:18:41;;;;;;;3.83;3.00;;;16.30;99.90;;;;;;5067851;28;20221;-53
2022/04/17 10:21:11;;;;;;;3.87;2.90;;;16.70;99.90;;;;;;5067678;28;20323;-53
2022/04/17 10:23:43;;;;;;;4.37;3.17;;;16.50;99.90;;;;;;5071403;28;20702;-53
2022/04/17 10:26:14;;;;;;;2.83;2.53;;;16.50;99.90;;;;;;5066237;28;20329;-53
2022/04/17 10:28:46;;;;;;;2.73;2.33;;;16.60;99.90;;;;;;5071087;28;20305;-53
2022/04/17 10:31:17;;;;;;;3.77;2.80;;;16.90;99.90;;;;;;5064837;28;20229;-53
2022/04/17 10:34:09;;;;;;;6.03;3.07;;;17.20;99.90;;;;;;5071112;28;20601;-53
2022/04/17 10:36:59;;;;;;;4.40;3.00;;;17.10;99.90;;;;;;5072382;28;20637;-52
2022/04/17 10:39:32;;;;;;;2.93;2.73;;;16.90;99.90;;;;;;5072590;28;20608;-53
2022/04/17 10:42:11;;;;;;;4.67;2.97;;;17.00;99.90;;;;;;5070666;28;20200;-53
2022/04/17 10:44:41;;;;;;;3.47;2.70;;;17.20;99.90;;;;;;5064198;28;20199;-53
2022/04/17 10:47:21;;;;;;;4.03;2.80;;;17.10;99.90;;;;;;5071312;28;20571;-53
2022/04/17 10:49:53;;;;;;;5.03;2.47;;;17.10;99.90;;;;;;5069938;28;20831;-55
2022/04/17 10:52:31;;;;;;;2.90;2.50;;;16.80;99.90;;;;;;5071895;28;20196;-53
2022/04/17 10:55:12;;;;;;;4.90;2.50;;;16.90;99.90;;;;;;5069392;28;20198;-60
2022/04/17 10:57:47;;;;;;;3.83;2.50;;;17.00;99.90;;;;;;5067591;28;20735;-52
2022/04/17 11:00:36;;;;;;;3.20;2.67;;;17.10;99.90;;;;;;5064245;28;20591;-54
2022/04/17 11:03:26;;;;;;;3.07;2.40;;;17.20;99.90;;;;;;5068438;28;20253;-53
2022/04/17 11:08:47;;;;;;;3.40;3.10;;;17.80;99.90;;;;;;5072064;28;20728;-53
2022/04/17 11:11:14;;;;;;;3.73;2.30;;;18.10;99.90;;;;;;5071340;28;20238;-54
2022/04/17 11:14:16;;;;;;;2.27;2.13;;;17.90;99.90;;;;;;5069595;28;20191;-53
2022/04/17 11:16:57;;;;;;;4.03;2.60;;;17.60;99.90;;;;;;5068078;28;20285;-56
2022/04/17 11:19:31;;;;;;;3.73;2.50;;;18.30;99.90;;;;;;5062057;28;20230;-53
2022/04/17 11:22:01;;;;;;;4.53;2.70;;;18.60;99.90;;;;;;5065303;28;20274;-53
2022/04/17 11:24:30;;;;;;;3.00;2.60;;;18.50;99.90;;;;;;5068493;28;20225;-53
2022/04/17 11:26:57;;;;;;;3.10;2.47;;;18.80;99.90;;;;;;5070976;28;20712;-54
2022/04/17 11:29:48;;;;;;;2.23;2.00;;;19.20;99.90;;;;;;5070569;28;20199;-53
2022/04/17 11:32:18;;;;;;;3.03;2.70;;;19.20;99.90;;;;;;5070490;28;20647;-53
2022/04/17 11:34:52;;;;;;;2.37;2.07;;;19.30;99.90;;;;;;5069861;28;20211;-53
2022/04/17 11:37:20;;;;;;;4.33;2.23;;;19.20;99.90;;;;;;5068883;28;20232;-53
2022/04/17 11:39:47;;;;;;;3.37;2.57;;;19.60;99.90;;;;;;5068870;28;20662;-52
2022/04/17 11:42:14;;;;;;;3.23;2.20;;;19.80;99.90;;;;;;5067082;28;20213;-52
2022/04/17 11:44:46;;;;;;;3.47;2.50;;;19.80;99.90;;;;;;5070935;28;20205;-53
2022/04/17 11:47:17;;;;;;;3.83;2.47;;;19.70;99.90;;;;;;5070057;28;20664;-53
2022/04/17 11:49:45;;;;;;;4.60;2.80;;;19.20;99.90;;;;;;5069816;28;20233;-52
2022/04/17 11:52:14;;;;;;;3.83;3.30;;;19.60;99.90;;;;;;5068040;28;20228;-53
2022/04/17 11:54:41;;;;;;;3.33;2.70;;;19.60;99.90;;;;;;5070908;28;20234;-53
2022/04/17 11:57:09;;;;;;;3.70;3.03;;;20.00;99.90;;;;;;5069601;28;20708;-53
2022/04/17 11:59:46;;;;;;;4.83;3.00;;;20.00;99.90;;;;;;5060454;28;20230;-55
2022/04/17 12:02:24;;;;;;;3.80;2.80;;;20.20;99.90;;;;;;5060623;28;20222;-53
2022/04/17 12:04:53;;;;;;;3.40;2.67;;;20.20;99.90;;;;;;5063789;28;20193;-53
2022/04/17 12:07:25;;;;;;;3.80;2.80;;;20.40;99.90;;;;;;5066237;28;20201;-55
2022/04/17 12:10:13;;;;;;;3.07;2.60;;;20.50;99.90;;;;;;5070312;28;20199;-58
2022/04/17 12:12:42;;;;;;;2.67;2.40;;;20.70;99.90;;;;;;5068952;28;20203;-53
2022/04/17 12:15:11;;;;;;;2.80;2.50;;;20.60;99.90;;;;;;5070596;28;20231;-53
2022/04/17 12:17:39;;;;;;;2.90;2.60;;;20.70;99.90;;;;;;5067500;28;20215;-53
2022/04/17 12:20:15;;;;;;;4.00;2.60;;;20.80;99.90;;;;;;5069607;28;20538;-53
2022/04/17 12:22:42;;;;;;;4.47;2.57;;;20.90;99.90;;;;;;5070370;28;20703;-52
2022/04/17 12:25:17;;;;;;;2.40;2.20;;;21.40;99.90;;;;;;5069885;28;20207;-53
2022/04/17 12:27:48;;;;;;;3.07;2.67;;;21.10;99.90;;;;;;5069747;28;20688;-53
2022/04/17 12:30:24;;;;;;;3.63;2.20;;;20.80;99.90;;;;;;5070446;28;20219;-54
2022/04/17 12:32:55;;;;;;;2.20;1.93;;;20.60;99.90;;;;;;5064891;28;20645;-54
2022/04/17 12:35:24;;;;;;;4.10;2.07;;;20.40;99.90;;;;;;5067108;28;20257;-54
2022/04/17 12:38:07;;;;;;;2.70;2.20;;;20.70;99.90;;;;;;5070442;28;20593;-54
2022/04/17 12:40:44;;;;;;;2.80;2.23;;;21.10;99.90;;;;;;5052762;28;20297;-54
2022/04/17 12:43:16;;;;;;;2.50;2.23;;;21.70;99.90;;;;;;5066071;28;20547;-53
2022/04/17 12:46:04;;;;;;;3.43;2.63;;;21.50;99.90;;;;;;5052877;28;20258;-53
2022/04/17 12:48:35;;;;;;;2.90;2.40;;;21.10;99.90;;;;;;5058656;28;20215;-53
2022/04/17 12:51:04;;;;;;;3.07;2.30;;;21.30;99.90;;;;;;5063214;28;20617;-53
2022/04/17 12:53:37;;;;;;;4.03;2.30;;;21.00;99.90;;;;;;5060000;28;20196;-53
2022/04/17 12:56:05;;;;;;;2.53;2.33;;;21.40;99.90;;;;;;5060060;28;20227;-53
2022/04/17 12:58:52;;;;;;;2.50;2.23;;;21.10;99.90;;;;;;5059461;28;20280;-53
2022/04/17 13:01:21;;;;;;;3.63;2.20;;;21.00;99.90;;;;;;5062852;28;20202;-53
2022/04/17 13:04:21;;;;;;;2.50;2.30;;;21.30;99.90;;;;;;5064458;28;20206;-53
2022/04/17 13:07:07;;;;;;;3.23;2.73;;;21.30;99.90;;;;;;5061763;28;20707;-53
2022/04/17 13:09:34;;;;;;;2.47;2.20;;;21.50;99.90;;;;;;5065283;28;20254;-53
2022/04/17 13:12:01;;;;;;;2.50;2.30;;;21.50;99.90;;;;;;5060789;28;20586;-52
2022/04/17 13:14:28;;;;;;;4.80;2.60;;;22.00;99.90;;;;;;5059522;28;20318;-53
2022/04/17 13:16:57;;;;;;;4.10;2.20;;;21.30;99.90;;;;;;5065533;28;20286;-53
2022/04/17 13:19:26;;;;;;;2.17;1.97;;;21.30;99.90;;;;;;5056851;28;20192;-55